sensor_id;sensor_type;location;lat;lon;timestamp;P1;durP1;ratioP1;P2;durP2;ratioP2
43823;SDS011;29470;53.550;9.926;2023-09-19T00:02:24;3.15;;;1.40;;
43823;SDS011;29470;53.550;9.926;2023-09-19T00:07:28;3.67;;;1.70;;
43823;SDS011;29470;53.550;9.926;2023-09-19T00:12:32;4.15;;;1.40;;
43823;SDS011;29470;53.550;9.926;2023-09-19T00:17:35;3.38;;;1.60;;
43823;SDS011;29470;53.550;9.926;2023-09-19T00:22:39;3.00;;;1.60;;
43823;SDS011;29470;53.550;9.926;2023-09-19T00:27:44;4.07;;;2.00;;
43823;SDS011;29470;53.550;9.926;2023-09-19T00:32:49;3.38;;;1.67;;
43823;SDS011;29470;53.550;9.926;2023-09-19T00:37:56;5.68;;;1.98;;
43823;SDS011;29470;53.550;9.926;2023-09-19T00:43:00;4.75;;;1.92;;
43823;SDS011;29470;53.550;9.926;2023-09-19T00:48:03;5.72;;;2.15;;
43823;SDS011;29470;53.550;9.926;2023-09-19T00:53:13;3.70;;;2.05;;
43823;SDS011;29470;53.550;9.926;2023-09-19T00:58:21;5.95;;;2.58;;
43823;SDS011;29470;53.550;9.926;2023-09-19T01:03:24;6.35;;;2.30;;
43823;SDS011;29470;53.550;9.926;2023-09-19T01:08:27;7.30;;;2.40;;
43823;SDS011;29470;53.550;9.926;2023-09-19T01:13:34;5.53;;;2.90;;
43823;SDS011;29470;53.550;9.926;2023-09-19T01:18:47;6.30;;;2.88;;
43823;SDS011;29470;53.550;9.926;2023-09-19T01:24:02;5.20;;;2.42;;
43823;SDS011;29470;53.550;9.926;2023-09-19T01:29:26;3.88;;;2.60;;
43823;SDS011;29470;53.550;9.926;2023-09-19T01:34:45;5.85;;;2.83;;
43823;SDS011;29470;53.550;9.926;2023-09-19T01:39:51;6.80;;;2.28;;
43823;SDS011;29470;53.550;9.926;2023-09-19T01:44:57;5.13;;;2.63;;
43823;SDS011;29470;53.550;9.926;2023-09-19T01:50:13;5.15;;;2.30;;
43823;SDS011;29470;53.550;9.926;2023-09-19T01:55:24;3.65;;;1.90;;
43823;SDS011;29470;53.550;9.926;2023-09-19T02:00:31;5.63;;;1.90;;
43823;SDS011;29470;53.550;9.926;2023-09-19T02:05:37;5.03;;;2.20;;
43823;SDS011;29470;53.550;9.926;2023-09-19T02:10:41;5.18;;;2.58;;
43823;SDS011;29470;53.550;9.926;2023-09-19T02:15:44;5.10;;;2.60;;
43823;SDS011;29470;53.550;9.926;2023-09-19T02:20:49;5.43;;;3.40;;
43823;SDS011;29470;53.550;9.926;2023-09-19T02:25:52;5.65;;;3.10;;
43823;SDS011;29470;53.550;9.926;2023-09-19T02:30:56;6.00;;;3.50;;
43823;SDS011;29470;53.550;9.926;2023-09-19T02:36:00;7.60;;;3.92;;
43823;SDS011;29470;53.550;9.926;2023-09-19T02:41:05;6.45;;;3.50;;
43823;SDS011;29470;53.550;9.926;2023-09-19T02:46:08;10.38;;;3.75;;
43823;SDS011;29470;53.550;9.926;2023-09-19T02:51:15;6.88;;;3.25;;
43823;SDS011;29470;53.550;9.926;2023-09-19T02:56:18;6.70;;;2.47;;
43823;SDS011;29470;53.550;9.926;2023-09-19T03:01:21;7.85;;;3.08;;
43823;SDS011;29470;53.550;9.926;2023-09-19T03:06:26;10.30;;;3.05;;
43823;SDS011;29470;53.550;9.926;2023-09-19T03:11:32;7.03;;;2.75;;
43823;SDS011;29470;53.550;9.926;2023-09-19T03:16:35;6.95;;;2.22;;
43823;SDS011;29470;53.550;9.926;2023-09-19T03:21:40;6.97;;;2.65;;
43823;SDS011;29470;53.550;9.926;2023-09-19T03:26:44;7.82;;;2.17;;
43823;SDS011;29470;53.550;9.926;2023-09-19T03:31:49;5.50;;;2.25;;
43823;SDS011;29470;53.550;9.926;2023-09-19T03:36:54;6.32;;;2.33;;
43823;SDS011;29470;53.550;9.926;2023-09-19T03:41:58;5.65;;;2.35;;
43823;SDS011;29470;53.550;9.926;2023-09-19T03:47:01;7.38;;;2.30;;
43823;SDS011;29470;53.550;9.926;2023-09-19T03:52:05;5.53;;;2.03;;
43823;SDS011;29470;53.550;9.926;2023-09-19T03:57:08;4.38;;;1.80;;
43823;SDS011;29470;53.550;9.926;2023-09-19T04:02:11;5.10;;;2.38;;
43823;SDS011;29470;53.550;9.926;2023-09-19T04:07:25;4.63;;;1.98;;
43823;SDS011;29470;53.550;9.926;2023-09-19T04:12:30;5.43;;;1.63;;
43823;SDS011;29470;53.550;9.926;2023-09-19T04:17:35;5.40;;;1.60;;
43823;SDS011;29470;53.550;9.926;2023-09-19T04:22:39;4.15;;;1.40;;
43823;SDS011;29470;53.550;9.926;2023-09-19T04:27:43;4.32;;;1.40;;
43823;SDS011;29470;53.550;9.926;2023-09-19T04:32:46;6.47;;;1.40;;
43823;SDS011;29470;53.550;9.926;2023-09-19T04:37:54;7.65;;;1.67;;
43823;SDS011;29470;53.550;9.926;2023-09-19T04:42:57;5.80;;;1.70;;
43823;SDS011;29470;53.550;9.926;2023-09-19T04:48:01;5.63;;;1.40;;
43823;SDS011;29470;53.550;9.926;2023-09-19T04:53:06;7.45;;;1.75;;
43823;SDS011;29470;53.550;9.926;2023-09-19T04:58:09;7.65;;;1.80;;
43823;SDS011;29470;53.550;9.926;2023-09-19T05:03:12;5.30;;;1.65;;
43823;SDS011;29470;53.550;9.926;2023-09-19T05:08:17;7.68;;;2.00;;
43823;SDS011;29470;53.550;9.926;2023-09-19T05:13:19;5.80;;;1.70;;
43823;SDS011;29470;53.550;9.926;2023-09-19T05:18:24;9.05;;;1.85;;
43823;SDS011;29470;53.550;9.926;2023-09-19T05:23:28;5.88;;;1.60;;
43823;SDS011;29470;53.550;9.926;2023-09-19T05:28:32;5.43;;;2.40;;
43823;SDS011;29470;53.550;9.926;2023-09-19T05:33:39;10.10;;;2.00;;
43823;SDS011;29470;53.550;9.926;2023-09-19T05:38:43;3.97;;;1.35;;
43823;SDS011;29470;53.550;9.926;2023-09-19T05:43:48;5.47;;;1.75;;
43823;SDS011;29470;53.550;9.926;2023-09-19T05:48:52;6.20;;;1.73;;
43823;SDS011;29470;53.550;9.926;2023-09-19T05:53:56;4.68;;;1.23;;
43823;SDS011;29470;53.550;9.926;2023-09-19T05:58:59;5.18;;;1.65;;
43823;SDS011;29470;53.550;9.926;2023-09-19T06:04:02;5.30;;;1.50;;
43823;SDS011;29470;53.550;9.926;2023-09-19T06:09:07;6.90;;;1.80;;
43823;SDS011;29470;53.550;9.926;2023-09-19T06:14:10;6.30;;;1.60;;
43823;SDS011;29470;53.550;9.926;2023-09-19T06:19:13;6.15;;;1.98;;
43823;SDS011;29470;53.550;9.926;2023-09-19T06:24:17;6.55;;;1.95;;
43823;SDS011;29470;53.550;9.926;2023-09-19T06:29:22;6.75;;;1.90;;
43823;SDS011;29470;53.550;9.926;2023-09-19T06:34:26;5.03;;;1.45;;
43823;SDS011;29470;53.550;9.926;2023-09-19T06:39:30;8.90;;;1.77;;
43823;SDS011;29470;53.550;9.926;2023-09-19T06:44:33;10.82;;;2.50;;
43823;SDS011;29470;53.550;9.926;2023-09-19T06:49:36;8.30;;;2.22;;
43823;SDS011;29470;53.550;9.926;2023-09-19T06:54:40;9.50;;;2.13;;
43823;SDS011;29470;53.550;9.926;2023-09-19T06:59:43;6.78;;;2.00;;
43823;SDS011;29470;53.550;9.926;2023-09-19T07:04:46;6.78;;;1.65;;
43823;SDS011;29470;53.550;9.926;2023-09-19T07:09:52;7.22;;;1.92;;
43823;SDS011;29470;53.550;9.926;2023-09-19T07:14:55;7.85;;;2.22;;
43823;SDS011;29470;53.550;9.926;2023-09-19T07:19:58;9.82;;;1.88;;
43823;SDS011;29470;53.550;9.926;2023-09-19T07:25:03;5.95;;;2.08;;
43823;SDS011;29470;53.550;9.926;2023-09-19T07:30:06;9.63;;;2.00;;
43823;SDS011;29470;53.550;9.926;2023-09-19T07:35:10;10.30;;;2.10;;
43823;SDS011;29470;53.550;9.926;2023-09-19T07:40:14;6.63;;;2.15;;
43823;SDS011;29470;53.550;9.926;2023-09-19T07:45:18;7.55;;;2.65;;
43823;SDS011;29470;53.550;9.926;2023-09-19T07:50:21;10.43;;;2.05;;
43823;SDS011;29470;53.550;9.926;2023-09-19T07:55:25;6.28;;;2.33;;
43823;SDS011;29470;53.550;9.926;2023-09-19T08:00:28;11.23;;;2.53;;
43823;SDS011;29470;53.550;9.926;2023-09-19T08:05:32;8.25;;;2.45;;
43823;SDS011;29470;53.550;9.926;2023-09-19T08:10:36;11.10;;;3.13;;
43823;SDS011;29470;53.550;9.926;2023-09-19T08:15:42;9.13;;;2.35;;
43823;SDS011;29470;53.550;9.926;2023-09-19T08:20:49;25.58;;;4.80;;
43823;SDS011;29470;53.550;9.926;2023-09-19T08:25:56;11.52;;;2.40;;
43823;SDS011;29470;53.550;9.926;2023-09-19T08:31:08;8.85;;;2.42;;
43823;SDS011;29470;53.550;9.926;2023-09-19T08:36:11;6.78;;;2.80;;
43823;SDS011;29470;53.550;9.926;2023-09-19T08:41:16;7.50;;;2.53;;
43823;SDS011;29470;53.550;9.926;2023-09-19T08:46:23;10.30;;;3.08;;
43823;SDS011;29470;53.550;9.926;2023-09-19T08:51:30;7.72;;;2.30;;
43823;SDS011;29470;53.550;9.926;2023-09-19T08:56:43;11.95;;;2.45;;
43823;SDS011;29470;53.550;9.926;2023-09-19T09:01:48;7.07;;;2.30;;
43823;SDS011;29470;53.550;9.926;2023-09-19T09:06:54;7.85;;;2.47;;
43823;SDS011;29470;53.550;9.926;2023-09-19T09:12:01;7.28;;;2.30;;
43823;SDS011;29470;53.550;9.926;2023-09-19T09:17:05;8.40;;;2.50;;
43823;SDS011;29470;53.550;9.926;2023-09-19T09:22:09;9.07;;;3.00;;
43823;SDS011;29470;53.550;9.926;2023-09-19T09:27:14;9.25;;;2.45;;
43823;SDS011;29470;53.550;9.926;2023-09-19T09:32:18;8.05;;;2.20;;
43823;SDS011;29470;53.550;9.926;2023-09-19T09:37:22;9.18;;;2.55;;
43823;SDS011;29470;53.550;9.926;2023-09-19T09:42:31;8.73;;;2.00;;
43823;SDS011;29470;53.550;9.926;2023-09-19T09:47:41;12.20;;;3.00;;
43823;SDS011;29470;53.550;9.926;2023-09-19T09:52:51;5.68;;;1.98;;
43823;SDS011;29470;53.550;9.926;2023-09-19T10:03:20;9.57;;;1.75;;
43823;SDS011;29470;53.550;9.926;2023-09-19T10:08:24;8.60;;;2.42;;
43823;SDS011;29470;53.550;9.926;2023-09-19T10:18:38;6.90;;;1.80;;
43823;SDS011;29470;53.550;9.926;2023-09-19T10:23:45;6.50;;;2.03;;
43823;SDS011;29470;53.550;9.926;2023-09-19T10:28:49;11.02;;;2.00;;
43823;SDS011;29470;53.550;9.926;2023-09-19T10:33:55;4.80;;;1.40;;
43823;SDS011;29470;53.550;9.926;2023-09-19T10:38:59;8.43;;;1.88;;
43823;SDS011;29470;53.550;9.926;2023-09-19T10:44:09;7.38;;;1.80;;
43823;SDS011;29470;53.550;9.926;2023-09-19T10:49:12;8.57;;;1.70;;
43823;SDS011;29470;53.550;9.926;2023-09-19T10:54:16;5.30;;;1.45;;
43823;SDS011;29470;53.550;9.926;2023-09-19T10:59:23;7.50;;;1.95;;
43823;SDS011;29470;53.550;9.926;2023-09-19T11:04:27;7.20;;;1.80;;
43823;SDS011;29470;53.550;9.926;2023-09-19T11:09:44;8.20;;;1.65;;
43823;SDS011;29470;53.550;9.926;2023-09-19T11:14:50;10.82;;;2.85;;
43823;SDS011;29470;53.550;9.926;2023-09-19T11:25:43;6.13;;;1.67;;
43823;SDS011;29470;53.550;9.926;2023-09-19T11:30:51;8.85;;;2.00;;
43823;SDS011;29470;53.550;9.926;2023-09-19T11:35:58;9.90;;;1.83;;
43823;SDS011;29470;53.550;9.926;2023-09-19T11:46:52;8.00;;;1.70;;
43823;SDS011;29470;53.550;9.926;2023-09-19T11:51:58;9.07;;;1.98;;
43823;SDS011;29470;53.550;9.926;2023-09-19T11:57:06;7.75;;;2.00;;
43823;SDS011;29470;53.550;9.926;2023-09-19T12:07:44;9.02;;;1.88;;
43823;SDS011;29470;53.550;9.926;2023-09-19T12:12:48;7.63;;;2.85;;
43823;SDS011;29470;53.550;9.926;2023-09-19T12:24:11;6.90;;;2.00;;
43823;SDS011;29470;53.550;9.926;2023-09-19T12:30:07;8.07;;;1.92;;
43823;SDS011;29470;53.550;9.926;2023-09-19T12:35:29;8.57;;;2.17;;
43823;SDS011;29470;53.550;9.926;2023-09-19T12:40:36;8.65;;;2.50;;
43823;SDS011;29470;53.550;9.926;2023-09-19T12:45:40;9.32;;;2.33;;
43823;SDS011;29470;53.550;9.926;2023-09-19T12:51:00;6.97;;;2.03;;
43823;SDS011;29470;53.550;9.926;2023-09-19T12:56:08;8.07;;;1.92;;
43823;SDS011;29470;53.550;9.926;2023-09-19T13:01:13;7.28;;;2.10;;
43823;SDS011;29470;53.550;9.926;2023-09-19T13:06:34;8.60;;;2.00;;
43823;SDS011;29470;53.550;9.926;2023-09-19T13:11:40;8.00;;;2.20;;
43823;SDS011;29470;53.550;9.926;2023-09-19T13:16:54;9.98;;;1.85;;
43823;SDS011;29470;53.550;9.926;2023-09-19T13:22:00;6.88;;;1.85;;
43823;SDS011;29470;53.550;9.926;2023-09-19T13:27:03;8.25;;;2.53;;
43823;SDS011;29470;53.550;9.926;2023-09-19T13:32:08;6.47;;;1.90;;
43823;SDS011;29470;53.550;9.926;2023-09-19T13:37:14;9.68;;;2.15;;
43823;SDS011;29470;53.550;9.926;2023-09-19T13:42:18;9.10;;;2.40;;
43823;SDS011;29470;53.550;9.926;2023-09-19T13:47:23;4.55;;;2.03;;
43823;SDS011;29470;53.550;9.926;2023-09-19T13:52:30;8.57;;;2.05;;
43823;SDS011;29470;53.550;9.926;2023-09-19T13:57:33;7.68;;;2.05;;
43823;SDS011;29470;53.550;9.926;2023-09-19T14:02:36;8.60;;;2.00;;
43823;SDS011;29470;53.550;9.926;2023-09-19T14:07:42;6.80;;;1.88;;
43823;SDS011;29470;53.550;9.926;2023-09-19T14:12:45;8.63;;;2.55;;
43823;SDS011;29470;53.550;9.926;2023-09-19T14:17:49;11.20;;;2.30;;
43823;SDS011;29470;53.550;9.926;2023-09-19T14:22:53;12.90;;;2.00;;
43823;SDS011;29470;53.550;9.926;2023-09-19T14:27:56;6.43;;;2.15;;
43823;SDS011;29470;53.550;9.926;2023-09-19T14:32:59;10.45;;;2.05;;
43823;SDS011;29470;53.550;9.926;2023-09-19T14:38:04;9.68;;;2.40;;
43823;SDS011;29470;53.550;9.926;2023-09-19T14:43:07;10.75;;;2.20;;
43823;SDS011;29470;53.550;9.926;2023-09-19T14:48:10;6.32;;;1.98;;
43823;SDS011;29470;53.550;9.926;2023-09-19T14:53:15;8.85;;;2.47;;
43823;SDS011;29470;53.550;9.926;2023-09-19T14:58:18;10.52;;;2.35;;
43823;SDS011;29470;53.550;9.926;2023-09-19T15:03:21;5.68;;;2.15;;
43823;SDS011;29470;53.550;9.926;2023-09-19T15:08:25;10.32;;;2.13;;
43823;SDS011;29470;53.550;9.926;2023-09-19T15:13:28;11.77;;;2.90;;
43823;SDS011;29470;53.550;9.926;2023-09-19T15:18:31;8.18;;;2.38;;
43823;SDS011;29470;53.550;9.926;2023-09-19T15:23:37;11.52;;;2.40;;
43823;SDS011;29470;53.550;9.926;2023-09-19T15:28:41;10.93;;;2.50;;
43823;SDS011;29470;53.550;9.926;2023-09-19T15:33:44;8.88;;;2.40;;
43823;SDS011;29470;53.550;9.926;2023-09-19T15:38:55;7.70;;;2.50;;
43823;SDS011;29470;53.550;9.926;2023-09-19T15:44:10;12.15;;;2.63;;
43823;SDS011;29470;53.550;9.926;2023-09-19T15:49:15;9.65;;;2.40;;
43823;SDS011;29470;53.550;9.926;2023-09-19T15:54:27;7.55;;;2.55;;
43823;SDS011;29470;53.550;9.926;2023-09-19T16:04:38;12.63;;;3.05;;
43823;SDS011;29470;53.550;9.926;2023-09-19T16:09:43;9.75;;;2.78;;
43823;SDS011;29470;53.550;9.926;2023-09-19T16:14:46;9.50;;;2.80;;
43823;SDS011;29470;53.550;9.926;2023-09-19T16:19:50;9.65;;;3.55;;
43823;SDS011;29470;53.550;9.926;2023-09-19T16:24:54;9.18;;;3.10;;
43823;SDS011;29470;53.550;9.926;2023-09-19T16:29:57;14.77;;;5.28;;
43823;SDS011;29470;53.550;9.926;2023-09-19T16:35:01;11.50;;;2.92;;
43823;SDS011;29470;53.550;9.926;2023-09-19T16:40:06;7.63;;;2.60;;
43823;SDS011;29470;53.550;9.926;2023-09-19T16:50:43;9.18;;;2.63;;
43823;SDS011;29470;53.550;9.926;2023-09-19T16:55:47;10.55;;;3.38;;
43823;SDS011;29470;53.550;9.926;2023-09-19T17:00:50;8.02;;;3.30;;
43823;SDS011;29470;53.550;9.926;2023-09-19T17:05:58;7.53;;;2.45;;
43823;SDS011;29470;53.550;9.926;2023-09-19T17:11:03;6.43;;;2.40;;
43823;SDS011;29470;53.550;9.926;2023-09-19T17:16:07;6.72;;;2.35;;
43823;SDS011;29470;53.550;9.926;2023-09-19T17:21:13;9.75;;;2.88;;
43823;SDS011;29470;53.550;9.926;2023-09-19T17:26:22;5.05;;;1.90;;
43823;SDS011;29470;53.550;9.926;2023-09-19T17:31:26;9.77;;;2.17;;
43823;SDS011;29470;53.550;9.926;2023-09-19T17:36:34;8.85;;;3.03;;
43823;SDS011;29470;53.550;9.926;2023-09-19T17:47:32;5.85;;;2.40;;
43823;SDS011;29470;53.550;9.926;2023-09-19T17:53:07;5.78;;;1.98;;
43823;SDS011;29470;53.550;9.926;2023-09-19T18:04:59;9.40;;;3.17;;
43823;SDS011;29470;53.550;9.926;2023-09-19T18:10:28;7.03;;;1.97;;
43823;SDS011;29470;53.550;9.926;2023-09-19T18:15:39;7.13;;;2.20;;
43823;SDS011;29470;53.550;9.926;2023-09-19T18:20:59;7.03;;;1.80;;
43823;SDS011;29470;53.550;9.926;2023-09-19T18:26:04;5.85;;;1.95;;
43823;SDS011;29470;53.550;9.926;2023-09-19T18:31:08;7.55;;;2.00;;
43823;SDS011;29470;53.550;9.926;2023-09-19T18:41:23;7.10;;;2.00;;
43823;SDS011;29470;53.550;9.926;2023-09-19T18:46:27;10.05;;;3.63;;
43823;SDS011;29470;53.550;9.926;2023-09-19T18:51:32;3.90;;;1.52;;
43823;SDS011;29470;53.550;9.926;2023-09-19T18:56:37;4.95;;;1.40;;
43823;SDS011;29470;53.550;9.926;2023-09-19T19:01:41;7.30;;;1.40;;
43823;SDS011;29470;53.550;9.926;2023-09-19T19:06:47;4.33;;;1.57;;
43823;SDS011;29470;53.550;9.926;2023-09-19T19:11:52;7.63;;;1.65;;
43823;SDS011;29470;53.550;9.926;2023-09-19T19:16:58;4.28;;;1.80;;
43823;SDS011;29470;53.550;9.926;2023-09-19T19:22:08;4.32;;;1.58;;
43823;SDS011;29470;53.550;9.926;2023-09-19T19:27:16;5.68;;;1.40;;
43823;SDS011;29470;53.550;9.926;2023-09-19T19:32:21;5.55;;;1.40;;
43823;SDS011;29470;53.550;9.926;2023-09-19T19:37:30;8.35;;;1.33;;
43823;SDS011;29470;53.550;9.926;2023-09-19T19:42:34;6.82;;;1.40;;
43823;SDS011;29470;53.550;9.926;2023-09-19T19:47:41;3.58;;;1.40;;
43823;SDS011;29470;53.550;9.926;2023-09-19T19:52:44;5.03;;;1.48;;
43823;SDS011;29470;53.550;9.926;2023-09-19T19:57:48;2.78;;;1.23;;
43823;SDS011;29470;53.550;9.926;2023-09-19T20:02:52;4.38;;;1.35;;
43823;SDS011;29470;53.550;9.926;2023-09-19T20:07:55;3.95;;;1.25;;
43823;SDS011;29470;53.550;9.926;2023-09-19T20:12:58;5.68;;;1.52;;
43823;SDS011;29470;53.550;9.926;2023-09-19T20:18:03;5.85;;;1.38;;
43823;SDS011;29470;53.550;9.926;2023-09-19T20:23:09;3.83;;;1.58;;
43823;SDS011;29470;53.550;9.926;2023-09-19T20:28:12;4.88;;;1.75;;
43823;SDS011;29470;53.550;9.926;2023-09-19T20:33:17;4.05;;;1.38;;
43823;SDS011;29470;53.550;9.926;2023-09-19T20:38:22;4.05;;;1.38;;
43823;SDS011;29470;53.550;9.926;2023-09-19T20:43:25;3.25;;;1.25;;
43823;SDS011;29470;53.550;9.926;2023-09-19T20:48:30;3.70;;;1.33;;
43823;SDS011;29470;53.550;9.926;2023-09-19T20:53:34;4.13;;;1.90;;
43823;SDS011;29470;53.550;9.926;2023-09-19T20:58:38;4.28;;;1.20;;
43823;SDS011;29470;53.550;9.926;2023-09-19T21:03:43;6.28;;;2.00;;
43823;SDS011;29470;53.550;9.926;2023-09-19T21:08:46;3.40;;;1.30;;
43823;SDS011;29470;53.550;9.926;2023-09-19T21:13:50;6.97;;;1.50;;
43823;SDS011;29470;53.550;9.926;2023-09-19T21:18:55;3.80;;;1.00;;
43823;SDS011;29470;53.550;9.926;2023-09-19T21:24:01;5.45;;;1.52;;
43823;SDS011;29470;53.550;9.926;2023-09-19T21:29:04;3.83;;;1.20;;
43823;SDS011;29470;53.550;9.926;2023-09-19T21:34:09;3.55;;;1.10;;
43823;SDS011;29470;53.550;9.926;2023-09-19T21:39:12;2.97;;;1.15;;
43823;SDS011;29470;53.550;9.926;2023-09-19T21:44:15;3.63;;;1.27;;
43823;SDS011;29470;53.550;9.926;2023-09-19T21:49:19;4.05;;;1.30;;
43823;SDS011;29470;53.550;9.926;2023-09-19T21:54:22;3.38;;;1.35;;
43823;SDS011;29470;53.550;9.926;2023-09-19T21:59:25;2.65;;;1.20;;
43823;SDS011;29470;53.550;9.926;2023-09-19T22:04:30;4.25;;;1.20;;
43823;SDS011;29470;53.550;9.926;2023-09-19T22:09:33;4.40;;;1.10;;
43823;SDS011;29470;53.550;9.926;2023-09-19T22:14:35;6.15;;;1.65;;
43823;SDS011;29470;53.550;9.926;2023-09-19T22:19:40;5.70;;;1.40;;
43823;SDS011;29470;53.550;9.926;2023-09-19T22:24:46;3.42;;;1.40;;
43823;SDS011;29470;53.550;9.926;2023-09-19T22:29:50;3.20;;;1.75;;
43823;SDS011;29470;53.550;9.926;2023-09-19T22:34:57;4.63;;;1.50;;
43823;SDS011;29470;53.550;9.926;2023-09-19T22:40:00;3.78;;;1.48;;
43823;SDS011;29470;53.550;9.926;2023-09-19T22:45:12;4.80;;;1.70;;
43823;SDS011;29470;53.550;9.926;2023-09-19T22:50:16;8.35;;;1.80;;
43823;SDS011;29470;53.550;9.926;2023-09-19T22:55:21;5.47;;;1.65;;
43823;SDS011;29470;53.550;9.926;2023-09-19T23:00:26;4.30;;;1.55;;
43823;SDS011;29470;53.550;9.926;2023-09-19T23:05:35;5.30;;;1.50;;
43823;SDS011;29470;53.550;9.926;2023-09-19T23:10:39;5.05;;;1.50;;
43823;SDS011;29470;53.550;9.926;2023-09-19T23:15:45;7.72;;;2.85;;
43823;SDS011;29470;53.550;9.926;2023-09-19T23:20:52;5.20;;;2.08;;
43823;SDS011;29470;53.550;9.926;2023-09-19T23:26:05;5.00;;;1.60;;
43823;SDS011;29470;53.550;9.926;2023-09-19T23:31:08;4.07;;;1.63;;
43823;SDS011;29470;53.550;9.926;2023-09-19T23:36:13;3.03;;;1.38;;
43823;SDS011;29470;53.550;9.926;2023-09-19T23:41:15;3.15;;;1.30;;
43823;SDS011;29470;53.550;9.926;2023-09-19T23:46:22;5.13;;;1.50;;
43823;SDS011;29470;53.550;9.926;2023-09-19T23:51:28;3.83;;;1.40;;
43823;SDS011;29470;53.550;9.926;2023-09-19T23:56:31;7.38;;;1.80;;
